sensor_id;sensor_type;location;lat;lon;timestamp;P1;durP1;ratioP1;P2;durP2;ratioP2
24381;SDS011;12502;50.678;7.172;2022-10-16T00:00:41;7.70;;;6.25;;
24381;SDS011;12502;50.678;7.172;2022-10-16T00:05:45;9.67;;;6.40;;
24381;SDS011;12502;50.678;7.172;2022-10-16T00:10:46;7.45;;;5.95;;
24381;SDS011;12502;50.678;7.172;2022-10-16T00:15:48;7.90;;;6.07;;
24381;SDS011;12502;50.678;7.172;2022-10-16T00:26:20;7.68;;;6.20;;
24381;SDS011;12502;50.678;7.172;2022-10-16T00:31:22;8.70;;;6.68;;
24381;SDS011;12502;50.678;7.172;2022-10-16T00:36:25;10.00;;;8.05;;
24381;SDS011;12502;50.678;7.172;2022-10-16T00:41:28;8.57;;;6.78;;
24381;SDS011;12502;50.678;7.172;2022-10-16T00:51:37;8.68;;;5.30;;
24381;SDS011;12502;50.678;7.172;2022-10-16T00:56:50;8.77;;;5.80;;
24381;SDS011;12502;50.678;7.172;2022-10-16T01:01:54;5.65;;;5.00;;
24381;SDS011;12502;50.678;7.172;2022-10-16T01:12:29;6.82;;;5.50;;
24381;SDS011;12502;50.678;7.172;2022-10-16T01:28:05;10.07;;;6.18;;
24381;SDS011;12502;50.678;7.172;2022-10-16T01:33:30;11.52;;;6.55;;
24381;SDS011;12502;50.678;7.172;2022-10-16T01:38:45;8.63;;;4.43;;
24381;SDS011;12502;50.678;7.172;2022-10-16T01:49:14;5.93;;;4.85;;
24381;SDS011;12502;50.678;7.172;2022-10-16T01:59:21;7.53;;;5.30;;
24381;SDS011;12502;50.678;7.172;2022-10-16T02:04:28;10.77;;;4.88;;
24381;SDS011;12502;50.678;7.172;2022-10-16T02:09:33;8.07;;;6.60;;
24381;SDS011;12502;50.678;7.172;2022-10-16T02:14:37;8.57;;;7.00;;
24381;SDS011;12502;50.678;7.172;2022-10-16T02:19:40;8.70;;;5.60;;
24381;SDS011;12502;50.678;7.172;2022-10-16T02:24:46;9.25;;;5.70;;
24381;SDS011;12502;50.678;7.172;2022-10-16T02:29:59;6.30;;;4.13;;
24381;SDS011;12502;50.678;7.172;2022-10-16T02:35:23;6.03;;;3.63;;
24381;SDS011;12502;50.678;7.172;2022-10-16T02:40:26;6.70;;;4.20;;
24381;SDS011;12502;50.678;7.172;2022-10-16T02:45:28;10.60;;;4.57;;
24381;SDS011;12502;50.678;7.172;2022-10-16T02:50:30;7.82;;;3.90;;
24381;SDS011;12502;50.678;7.172;2022-10-16T02:55:32;8.07;;;4.15;;
24381;SDS011;12502;50.678;7.172;2022-10-16T03:00:34;7.25;;;3.65;;
24381;SDS011;12502;50.678;7.172;2022-10-16T03:05:35;8.68;;;3.58;;
24381;SDS011;12502;50.678;7.172;2022-10-16T03:10:37;6.93;;;4.20;;
24381;SDS011;12502;50.678;7.172;2022-10-16T03:15:38;4.82;;;3.80;;
24381;SDS011;12502;50.678;7.172;2022-10-16T03:20:40;5.45;;;3.25;;
24381;SDS011;12502;50.678;7.172;2022-10-16T03:25:43;8.18;;;4.22;;
24381;SDS011;12502;50.678;7.172;2022-10-16T03:30:48;6.35;;;3.38;;
24381;SDS011;12502;50.678;7.172;2022-10-16T03:35:53;3.35;;;2.65;;
24381;SDS011;12502;50.678;7.172;2022-10-16T03:40:56;3.63;;;2.80;;
24381;SDS011;12502;50.678;7.172;2022-10-16T03:45:57;3.72;;;2.88;;
24381;SDS011;12502;50.678;7.172;2022-10-16T03:50:59;5.97;;;3.08;;
24381;SDS011;12502;50.678;7.172;2022-10-16T03:56:00;4.40;;;2.60;;
24381;SDS011;12502;50.678;7.172;2022-10-16T04:01:02;3.20;;;2.17;;
24381;SDS011;12502;50.678;7.172;2022-10-16T04:06:04;7.47;;;2.55;;
24381;SDS011;12502;50.678;7.172;2022-10-16T04:11:10;4.25;;;2.30;;
24381;SDS011;12502;50.678;7.172;2022-10-16T04:16:12;2.53;;;2.20;;
24381;SDS011;12502;50.678;7.172;2022-10-16T04:21:14;3.03;;;1.90;;
24381;SDS011;12502;50.678;7.172;2022-10-16T04:26:15;3.80;;;2.10;;
24381;SDS011;12502;50.678;7.172;2022-10-16T04:31:17;2.70;;;2.47;;
24381;SDS011;12502;50.678;7.172;2022-10-16T04:36:19;8.32;;;1.70;;
24381;SDS011;12502;50.678;7.172;2022-10-16T04:41:24;3.75;;;2.15;;
24381;SDS011;12502;50.678;7.172;2022-10-16T04:46:26;2.83;;;2.33;;
24381;SDS011;12502;50.678;7.172;2022-10-16T04:51:27;2.53;;;2.33;;
24381;SDS011;12502;50.678;7.172;2022-10-16T04:56:29;3.28;;;2.60;;
24381;SDS011;12502;50.678;7.172;2022-10-16T05:01:31;6.32;;;2.40;;
24381;SDS011;12502;50.678;7.172;2022-10-16T05:06:32;5.53;;;2.47;;
24381;SDS011;12502;50.678;7.172;2022-10-16T05:11:34;2.92;;;2.60;;
24381;SDS011;12502;50.678;7.172;2022-10-16T05:16:36;3.80;;;2.88;;
24381;SDS011;12502;50.678;7.172;2022-10-16T05:21:38;4.32;;;2.88;;
24381;SDS011;12502;50.678;7.172;2022-10-16T05:26:39;4.18;;;2.95;;
24381;SDS011;12502;50.678;7.172;2022-10-16T05:31:41;4.63;;;2.88;;
24381;SDS011;12502;50.678;7.172;2022-10-16T05:36:42;3.83;;;2.60;;
24381;SDS011;12502;50.678;7.172;2022-10-16T05:41:46;7.85;;;2.72;;
24381;SDS011;12502;50.678;7.172;2022-10-16T05:46:47;4.68;;;2.72;;
24381;SDS011;12502;50.678;7.172;2022-10-16T05:51:49;3.95;;;3.13;;
24381;SDS011;12502;50.678;7.172;2022-10-16T05:56:51;3.67;;;2.40;;
24381;SDS011;12502;50.678;7.172;2022-10-16T06:01:52;5.18;;;2.70;;
24381;SDS011;12502;50.678;7.172;2022-10-16T06:06:57;3.15;;;2.58;;
24381;SDS011;12502;50.678;7.172;2022-10-16T06:12:01;2.78;;;2.33;;
24381;SDS011;12502;50.678;7.172;2022-10-16T06:17:03;5.03;;;2.42;;
24381;SDS011;12502;50.678;7.172;2022-10-16T06:22:04;3.60;;;2.50;;
24381;SDS011;12502;50.678;7.172;2022-10-16T06:27:08;2.60;;;2.40;;
24381;SDS011;12502;50.678;7.172;2022-10-16T06:32:11;2.47;;;2.28;;
24381;SDS011;12502;50.678;7.172;2022-10-16T06:37:14;4.22;;;2.50;;
24381;SDS011;12502;50.678;7.172;2022-10-16T06:42:15;4.40;;;2.60;;
24381;SDS011;12502;50.678;7.172;2022-10-16T06:47:18;4.13;;;2.40;;
24381;SDS011;12502;50.678;7.172;2022-10-16T06:52:20;5.15;;;2.50;;
24381;SDS011;12502;50.678;7.172;2022-10-16T06:57:21;5.13;;;2.47;;
24381;SDS011;12502;50.678;7.172;2022-10-16T07:02:23;3.53;;;2.60;;
24381;SDS011;12502;50.678;7.172;2022-10-16T07:07:26;2.95;;;2.30;;
24381;SDS011;12502;50.678;7.172;2022-10-16T07:12:27;2.92;;;2.53;;
24381;SDS011;12502;50.678;7.172;2022-10-16T07:17:29;5.22;;;2.55;;
24381;SDS011;12502;50.678;7.172;2022-10-16T07:22:31;5.57;;;2.53;;
24381;SDS011;12502;50.678;7.172;2022-10-16T07:27:33;3.22;;;2.50;;
24381;SDS011;12502;50.678;7.172;2022-10-16T07:32:35;3.00;;;2.70;;
24381;SDS011;12502;50.678;7.172;2022-10-16T07:37:37;5.50;;;2.53;;
24381;SDS011;12502;50.678;7.172;2022-10-16T07:42:39;2.70;;;2.50;;
24381;SDS011;12502;50.678;7.172;2022-10-16T07:47:40;3.33;;;2.55;;
24381;SDS011;12502;50.678;7.172;2022-10-16T07:52:42;3.95;;;2.47;;
24381;SDS011;12502;50.678;7.172;2022-10-16T07:57:44;3.08;;;2.40;;
24381;SDS011;12502;50.678;7.172;2022-10-16T08:02:46;5.20;;;1.80;;
24381;SDS011;12502;50.678;7.172;2022-10-16T08:07:50;2.28;;;1.95;;
24381;SDS011;12502;50.678;7.172;2022-10-16T08:12:52;5.78;;;1.90;;
24381;SDS011;12502;50.678;7.172;2022-10-16T08:17:58;2.50;;;1.40;;
24381;SDS011;12502;50.678;7.172;2022-10-16T08:23:01;2.00;;;1.48;;
24381;SDS011;12502;50.678;7.172;2022-10-16T08:28:07;4.20;;;1.40;;
24381;SDS011;12502;50.678;7.172;2022-10-16T08:33:10;5.38;;;1.30;;
24381;SDS011;12502;50.678;7.172;2022-10-16T08:38:12;1.80;;;1.55;;
24381;SDS011;12502;50.678;7.172;2022-10-16T08:48:30;2.78;;;1.45;;
24381;SDS011;12502;50.678;7.172;2022-10-16T08:53:57;1.77;;;1.30;;
24381;SDS011;12502;50.678;7.172;2022-10-16T08:59:00;1.77;;;1.30;;
24381;SDS011;12502;50.678;7.172;2022-10-16T09:26:11;2.10;;;1.00;;
24381;SDS011;12502;50.678;7.172;2022-10-16T09:31:16;3.38;;;0.90;;
24381;SDS011;12502;50.678;7.172;2022-10-16T09:36:20;2.05;;;1.05;;
24381;SDS011;12502;50.678;7.172;2022-10-16T09:41:23;1.45;;;0.95;;
24381;SDS011;12502;50.678;7.172;2022-10-16T09:46:31;2.20;;;0.90;;
24381;SDS011;12502;50.678;7.172;2022-10-16T09:51:35;0.60;;;0.60;;
24381;SDS011;12502;50.678;7.172;2022-10-16T09:56:38;0.77;;;0.77;;
24381;SDS011;12502;50.678;7.172;2022-10-16T10:01:41;2.03;;;0.77;;
24381;SDS011;12502;50.678;7.172;2022-10-16T10:06:55;2.97;;;0.90;;
24381;SDS011;12502;50.678;7.172;2022-10-16T10:11:58;1.73;;;0.60;;
24381;SDS011;12502;50.678;7.172;2022-10-16T10:17:14;2.08;;;0.68;;
24381;SDS011;12502;50.678;7.172;2022-10-16T10:27:35;0.65;;;0.65;;
24381;SDS011;12502;50.678;7.172;2022-10-16T11:00:36;2.78;;;0.60;;
24381;SDS011;12502;50.678;7.172;2022-10-16T11:11:43;1.02;;;0.45;;
24381;SDS011;12502;50.678;7.172;2022-10-16T11:16:35;1.83;;;0.52;;
24381;SDS011;12502;50.678;7.172;2022-10-16T11:21:45;1.38;;;0.50;;
24381;SDS011;12502;50.678;7.172;2022-10-16T11:31:59;1.38;;;0.60;;
24381;SDS011;12502;50.678;7.172;2022-10-16T11:37:18;0.60;;;0.30;;
24381;SDS011;12502;50.678;7.172;2022-10-16T11:42:34;2.42;;;0.60;;
24381;SDS011;12502;50.678;7.172;2022-10-16T11:47:44;2.72;;;0.50;;
24381;SDS011;12502;50.678;7.172;2022-10-16T11:58:39;1.55;;;0.82;;
24381;SDS011;12502;50.678;7.172;2022-10-16T12:09:03;1.20;;;0.50;;
24381;SDS011;12502;50.678;7.172;2022-10-16T12:14:07;1.63;;;0.70;;
24381;SDS011;12502;50.678;7.172;2022-10-16T12:19:21;0.70;;;0.60;;
24381;SDS011;12502;50.678;7.172;2022-10-16T12:24:35;2.53;;;0.60;;
24381;SDS011;12502;50.678;7.172;2022-10-16T12:29:39;0.90;;;0.40;;
24381;SDS011;12502;50.678;7.172;2022-10-16T12:34:47;0.90;;;0.50;;
24381;SDS011;12502;50.678;7.172;2022-10-16T12:39:49;1.23;;;0.60;;
24381;SDS011;12502;50.678;7.172;2022-10-16T12:44:53;1.15;;;0.60;;
24381;SDS011;12502;50.678;7.172;2022-10-16T12:49:56;1.75;;;0.57;;
24381;SDS011;12502;50.678;7.172;2022-10-16T12:54:57;2.45;;;0.57;;
24381;SDS011;12502;50.678;7.172;2022-10-16T13:10:51;2.47;;;0.50;;
24381;SDS011;12502;50.678;7.172;2022-10-16T13:21:59;0.73;;;0.60;;
24381;SDS011;12502;50.678;7.172;2022-10-16T13:27:50;0.98;;;0.60;;
24381;SDS011;12502;50.678;7.172;2022-10-16T13:33:13;1.15;;;0.75;;
24381;SDS011;12502;50.678;7.172;2022-10-16T13:38:32;3.25;;;0.60;;
24381;SDS011;12502;50.678;7.172;2022-10-16T13:43:36;0.88;;;0.88;;
24381;SDS011;12502;50.678;7.172;2022-10-16T13:48:40;2.80;;;0.90;;
24381;SDS011;12502;50.678;7.172;2022-10-16T13:53:43;2.38;;;0.68;;
24381;SDS011;12502;50.678;7.172;2022-10-16T13:58:45;1.27;;;0.70;;
24381;SDS011;12502;50.678;7.172;2022-10-16T14:03:48;1.60;;;0.60;;
24381;SDS011;12502;50.678;7.172;2022-10-16T14:08:54;2.15;;;0.70;;
24381;SDS011;12502;50.678;7.172;2022-10-16T14:14:02;1.33;;;0.70;;
24381;SDS011;12502;50.678;7.172;2022-10-16T14:19:04;2.35;;;0.82;;
24381;SDS011;12502;50.678;7.172;2022-10-16T14:24:12;2.35;;;0.68;;
24381;SDS011;12502;50.678;7.172;2022-10-16T14:29:17;0.80;;;0.80;;
24381;SDS011;12502;50.678;7.172;2022-10-16T14:34:27;2.08;;;0.80;;
24381;SDS011;12502;50.678;7.172;2022-10-16T14:39:32;2.20;;;1.23;;
24381;SDS011;12502;50.678;7.172;2022-10-16T14:44:35;3.10;;;1.00;;
24381;SDS011;12502;50.678;7.172;2022-10-16T14:49:36;3.13;;;1.00;;
24381;SDS011;12502;50.678;7.172;2022-10-16T14:54:38;2.63;;;0.85;;
24381;SDS011;12502;50.678;7.172;2022-10-16T14:59:41;0.90;;;0.70;;
24381;SDS011;12502;50.678;7.172;2022-10-16T15:10:52;2.92;;;1.00;;
24381;SDS011;12502;50.678;7.172;2022-10-16T15:15:55;2.95;;;0.90;;
24381;SDS011;12502;50.678;7.172;2022-10-16T15:20:58;2.45;;;0.90;;
24381;SDS011;12502;50.678;7.172;2022-10-16T15:26:01;4.45;;;0.90;;
24381;SDS011;12502;50.678;7.172;2022-10-16T15:31:02;1.30;;;0.77;;
24381;SDS011;12502;50.678;7.172;2022-10-16T15:36:06;1.80;;;1.10;;
24381;SDS011;12502;50.678;7.172;2022-10-16T15:41:08;4.32;;;1.55;;
24381;SDS011;12502;50.678;7.172;2022-10-16T15:46:11;2.70;;;1.45;;
24381;SDS011;12502;50.678;7.172;2022-10-16T15:51:17;1.33;;;1.10;;
24381;SDS011;12502;50.678;7.172;2022-10-16T16:01:24;1.40;;;1.00;;
24381;SDS011;12502;50.678;7.172;2022-10-16T16:06:27;2.25;;;1.02;;
24381;SDS011;12502;50.678;7.172;2022-10-16T16:11:30;1.35;;;1.00;;
24381;SDS011;12502;50.678;7.172;2022-10-16T16:16:35;3.70;;;0.93;;
24381;SDS011;12502;50.678;7.172;2022-10-16T16:21:41;1.25;;;0.90;;
24381;SDS011;12502;50.678;7.172;2022-10-16T16:26:59;1.75;;;1.10;;
24381;SDS011;12502;50.678;7.172;2022-10-16T16:32:01;3.08;;;1.20;;
24381;SDS011;12502;50.678;7.172;2022-10-16T16:37:03;2.28;;;1.55;;
24381;SDS011;12502;50.678;7.172;2022-10-16T16:42:07;2.35;;;1.08;;
24381;SDS011;12502;50.678;7.172;2022-10-16T16:47:11;3.10;;;1.30;;
24381;SDS011;12502;50.678;7.172;2022-10-16T16:52:13;1.60;;;1.10;;
24381;SDS011;12502;50.678;7.172;2022-10-16T16:57:15;1.67;;;0.73;;
24381;SDS011;12502;50.678;7.172;2022-10-16T17:02:17;1.33;;;1.00;;
24381;SDS011;12502;50.678;7.172;2022-10-16T17:07:19;5.43;;;1.30;;
24381;SDS011;12502;50.678;7.172;2022-10-16T17:12:25;3.00;;;1.50;;
24381;SDS011;12502;50.678;7.172;2022-10-16T17:17:27;3.03;;;1.45;;
24381;SDS011;12502;50.678;7.172;2022-10-16T17:22:29;1.50;;;1.40;;
24381;SDS011;12502;50.678;7.172;2022-10-16T17:27:31;1.75;;;1.48;;
24381;SDS011;12502;50.678;7.172;2022-10-16T17:37:53;2.40;;;1.73;;
24381;SDS011;12502;50.678;7.172;2022-10-16T17:48:27;5.80;;;1.55;;
24381;SDS011;12502;50.678;7.172;2022-10-16T17:53:29;3.33;;;1.70;;
24381;SDS011;12502;50.678;7.172;2022-10-16T17:58:31;2.67;;;1.50;;
24381;SDS011;12502;50.678;7.172;2022-10-16T18:03:33;6.32;;;2.15;;
24381;SDS011;12502;50.678;7.172;2022-10-16T18:08:35;2.65;;;1.70;;
24381;SDS011;12502;50.678;7.172;2022-10-16T18:13:38;2.33;;;2.08;;
24381;SDS011;12502;50.678;7.172;2022-10-16T18:18:41;3.72;;;2.00;;
24381;SDS011;12502;50.678;7.172;2022-10-16T18:23:46;5.25;;;2.05;;
24381;SDS011;12502;50.678;7.172;2022-10-16T18:28:53;7.47;;;2.20;;
24381;SDS011;12502;50.678;7.172;2022-10-16T18:33:57;3.20;;;2.33;;
24381;SDS011;12502;50.678;7.172;2022-10-16T18:38:59;3.53;;;2.40;;
24381;SDS011;12502;50.678;7.172;2022-10-16T18:44:04;4.78;;;2.42;;
24381;SDS011;12502;50.678;7.172;2022-10-16T18:49:07;2.77;;;2.30;;
24381;SDS011;12502;50.678;7.172;2022-10-16T18:54:10;5.50;;;2.50;;
24381;SDS011;12502;50.678;7.172;2022-10-16T18:59:12;2.90;;;2.20;;
24381;SDS011;12502;50.678;7.172;2022-10-16T19:04:15;8.48;;;2.50;;
24381;SDS011;12502;50.678;7.172;2022-10-16T19:09:18;4.13;;;2.30;;
24381;SDS011;12502;50.678;7.172;2022-10-16T19:14:21;3.27;;;2.20;;
24381;SDS011;12502;50.678;7.172;2022-10-16T19:19:23;2.50;;;2.30;;
24381;SDS011;12502;50.678;7.172;2022-10-16T19:24:28;4.32;;;2.50;;
24381;SDS011;12502;50.678;7.172;2022-10-16T19:29:30;2.70;;;2.50;;
24381;SDS011;12502;50.678;7.172;2022-10-16T19:34:32;4.38;;;3.20;;
24381;SDS011;12502;50.678;7.172;2022-10-16T19:39:34;5.88;;;3.28;;
24381;SDS011;12502;50.678;7.172;2022-10-16T19:44:37;6.93;;;3.58;;
24381;SDS011;12502;50.678;7.172;2022-10-16T19:49:39;6.13;;;4.28;;
24381;SDS011;12502;50.678;7.172;2022-10-16T19:54:41;6.90;;;4.00;;
24381;SDS011;12502;50.678;7.172;2022-10-16T19:59:44;6.43;;;3.92;;
24381;SDS011;12502;50.678;7.172;2022-10-16T20:04:46;4.85;;;3.78;;
24381;SDS011;12502;50.678;7.172;2022-10-16T20:09:48;7.72;;;3.88;;
24381;SDS011;12502;50.678;7.172;2022-10-16T20:20:01;8.45;;;4.90;;
24381;SDS011;12502;50.678;7.172;2022-10-16T20:25:03;5.75;;;4.28;;
24381;SDS011;12502;50.678;7.172;2022-10-16T20:30:10;8.00;;;5.20;;
24381;SDS011;12502;50.678;7.172;2022-10-16T20:35:12;6.32;;;4.88;;
24381;SDS011;12502;50.678;7.172;2022-10-16T20:40:13;6.90;;;4.80;;
24381;SDS011;12502;50.678;7.172;2022-10-16T20:45:15;6.90;;;4.95;;
24381;SDS011;12502;50.678;7.172;2022-10-16T20:50:17;7.32;;;4.90;;
24381;SDS011;12502;50.678;7.172;2022-10-16T20:55:19;8.00;;;4.80;;
24381;SDS011;12502;50.678;7.172;2022-10-16T21:00:21;6.72;;;5.18;;
24381;SDS011;12502;50.678;7.172;2022-10-16T21:05:23;10.45;;;5.32;;
24381;SDS011;12502;50.678;7.172;2022-10-16T21:10:29;7.93;;;6.32;;
24381;SDS011;12502;50.678;7.172;2022-10-16T21:15:31;11.00;;;5.40;;
24381;SDS011;12502;50.678;7.172;2022-10-16T21:20:35;10.10;;;5.22;;
24381;SDS011;12502;50.678;7.172;2022-10-16T21:25:48;7.72;;;5.35;;
24381;SDS011;12502;50.678;7.172;2022-10-16T21:30:51;5.35;;;4.80;;
24381;SDS011;12502;50.678;7.172;2022-10-16T21:35:53;12.00;;;5.57;;
24381;SDS011;12502;50.678;7.172;2022-10-16T21:40:55;8.35;;;6.15;;
24381;SDS011;12502;50.678;7.172;2022-10-16T21:45:57;8.98;;;5.70;;
24381;SDS011;12502;50.678;7.172;2022-10-16T21:51:00;9.50;;;5.63;;
24381;SDS011;12502;50.678;7.172;2022-10-16T21:56:03;15.73;;;5.50;;
24381;SDS011;12502;50.678;7.172;2022-10-16T22:01:20;7.38;;;5.65;;
24381;SDS011;12502;50.678;7.172;2022-10-16T22:06:35;15.15;;;5.80;;
24381;SDS011;12502;50.678;7.172;2022-10-16T22:11:40;8.60;;;6.25;;
24381;SDS011;12502;50.678;7.172;2022-10-16T22:22:04;13.10;;;6.50;;
24381;SDS011;12502;50.678;7.172;2022-10-16T22:27:06;10.20;;;6.35;;
24381;SDS011;12502;50.678;7.172;2022-10-16T22:32:08;10.60;;;5.93;;
24381;SDS011;12502;50.678;7.172;2022-10-16T22:37:09;6.85;;;5.57;;
24381;SDS011;12502;50.678;7.172;2022-10-16T22:42:11;9.05;;;5.95;;
24381;SDS011;12502;50.678;7.172;2022-10-16T22:47:14;9.00;;;6.07;;
24381;SDS011;12502;50.678;7.172;2022-10-16T22:52:18;8.57;;;5.30;;
24381;SDS011;12502;50.678;7.172;2022-10-16T22:57:20;6.40;;;5.55;;
24381;SDS011;12502;50.678;7.172;2022-10-16T23:02:21;9.18;;;5.70;;
24381;SDS011;12502;50.678;7.172;2022-10-16T23:07:23;11.75;;;5.70;;
24381;SDS011;12502;50.678;7.172;2022-10-16T23:12:26;8.43;;;5.47;;
24381;SDS011;12502;50.678;7.172;2022-10-16T23:17:28;6.30;;;5.50;;
24381;SDS011;12502;50.678;7.172;2022-10-16T23:22:30;8.07;;;5.53;;
24381;SDS011;12502;50.678;7.172;2022-10-16T23:27:31;11.05;;;5.05;;
24381;SDS011;12502;50.678;7.172;2022-10-16T23:32:33;8.60;;;5.47;;
24381;SDS011;12502;50.678;7.172;2022-10-16T23:37:46;7.65;;;5.35;;
24381;SDS011;12502;50.678;7.172;2022-10-16T23:42:57;7.65;;;5.88;;
24381;SDS011;12502;50.678;7.172;2022-10-16T23:47:59;12.50;;;5.40;;
24381;SDS011;12502;50.678;7.172;2022-10-16T23:53:01;6.60;;;4.95;;
24381;SDS011;12502;50.678;7.172;2022-10-16T23:58:09;6.60;;;5.30;;
